Data for 09/08/2007

Time Sea-Level Adjusted Pressure Absolute Pressure Temperature Relative Humidity Dew Point   
(mb) (inHg) (mb) (inHg) (C) (F) (%) (C) (F)
00:05 1021 30.15 850 25.1 13.2 55.8 55 4.4 39.9
00:10 1021 30.15 850 25.1 12.8 55 55 4 39.2
00:15 1021 30.15 850 25.1 12.6 54.7 56 4.2 39.6
00:20 1021 30.15 850 25.1 12.7 54.8 55 4 39.2
00:25 1021 30.15 850 25.1 12.8 55.1 54 3.8 38.8
00:30 1021 30.15 851 25.13 12.8 55.1 55 4 39.1
00:35 1022 30.18 851 25.13 12.6 54.7 56 4.1 39.4
00:40 1022 30.18 851 25.13 12.4 54.4 58 4.4 40
00:45 1022 30.18 851 25.13 12.1 53.9 58 4.1 39.4
00:50 1022 30.18 851 25.13 12.1 53.9 57 3.9 39
00:55 1022 30.18 851 25.13 12.1 53.7 57 3.9 39
01:00 1022 30.18 851 25.13 11.8 53.2 58 3.9 39
01:05 1022 30.18 852 25.16 11.6 52.9 59 3.9 39
01:10 1022 30.18 852 25.16 11.6 53 58 3.8 38.9
01:15 1023 30.21 852 25.16 11.6 52.8 59 4 39.2
01:20 1023 30.21 852 25.16 11.4 52.6 60 4 39.1
01:25 1023 30.21 852 25.16 11.3 52.4 60 3.9 39
01:30 1023 30.21 852 25.16 11.1 52 61 3.8 38.9
01:35 1023 30.21 852 25.16 10.9 51.6 61 3.8 38.9
01:40 1023 30.21 852 25.16 10.8 51.4 61 3.7 38.6
01:45 1023 30.21 852 25.16 10.7 51.2 61 3.6 38.5
01:50 1023 30.21 852 25.16 10.7 51.3 61 3.5 38.3
01:55 1023 30.21 852 25.16 10.8 51.4 61 3.6 38.6
02:00 1023 30.21 852 25.16 10.7 51.2 62 3.6 38.6
02:05 1023 30.21 852 25.16 10.4 50.8 62 3.4 38.1
02:10 1023 30.21 853 25.19 10.3 50.5 62 3.3 37.9
02:15 1023 30.21 853 25.19 10.2 50.3 62 3.2 37.8
02:20 1023 30.21 853 25.19 10.1 50.2 63 3.4 38.1
02:25 1023 30.21 853 25.19 9.9 49.9 63 3.4 38.1
02:30 1023 30.21 853 25.19 9.9 49.8 64 3.4 38.2
02:35 1023 30.21 853 25.19 9.8 49.7 64 3.4 38.2
02:40 1024 30.24 853 25.19 9.8 49.7 65 3.5 38.3
02:45 1024 30.24 853 25.19 9.7 49.4 65 3.4 38.1
02:50 1024 30.24 853 25.19 9.7 49.5 65 3.5 38.3
02:55 1024 30.24 853 25.19 9.7 49.5 66 3.7 38.7
03:00 1024 30.24 853 25.19 9.6 49.2 67 3.8 38.9
03:05 1024 30.24 853 25.19 9.6 49.2 68 3.9 39
03:10 1024 30.24 853 25.19 9.5 49.1 67 3.8 38.9
03:15 1024 30.24 853 25.19 9.4 48.9 68 3.8 38.9
03:20 1024 30.24 853 25.19 9.3 48.8 68 3.7 38.7
03:25 1024 30.24 853 25.19 9.3 48.7 68 3.8 38.8
03:30 1024 30.24 853 25.19 9.1 48.4 69 3.8 38.8
03:35 1024 30.24 853 25.19 9 48.1 70 3.8 38.9
03:40 1024 30.24 853 25.19 8.8 47.8 71 3.8 38.8
03:45 1024 30.24 853 25.19 8.7 47.6 70 3.5 38.4
03:50 1024 30.24 853 25.19 8.6 47.4 71 3.6 38.5
03:55 1024 30.24 853 25.19 8.5 47.2 72 3.7 38.6
04:00 1024 30.24 853 25.19 8.4 47.1 72 3.7 38.6
04:05 1024 30.24 853 25.19 8.3 47 72 3.7 38.6
04:10 1024 30.24 853 25.19 8.1 46.6 73 3.5 38.3
04:15 1024 30.24 853 25.19 8.2 46.8 73 3.7 38.6
04:20 1024 30.24 853 25.19 8.2 46.7 73 3.7 38.7
04:25 1024 30.24 854 25.22 8.1 46.5 74 3.7 38.7
04:30 1024 30.24 854 25.22 7.9 46.1 75 3.7 38.6
04:35 1024 30.24 854 25.22 8 46.3 74 3.6 38.4
04:40 1025 30.27 854 25.22 7.8 46 77 3.9 39.1
04:45 1025 30.27 854 25.22 7.5 45.4 77 3.7 38.7
04:50 1025 30.27 854 25.22 7.5 45.4 77 3.7 38.6
04:55 1025 30.27 854 25.22 7.4 45.3 77 3.6 38.5
05:00 1025 30.27 854 25.22 7.4 45.3 76 3.5 38.4
05:05 1025 30.27 854 25.22 7.4 45.4 76 3.6 38.4
05:10 1025 30.27 854 25.22 7.4 45.2 78 3.7 38.7
05:15 1025 30.27 854 25.22 7.4 45.3 76 3.5 38.3
05:20 1025 30.27 854 25.22 7.3 45.2 77 3.6 38.4
05:25 1025 30.27 854 25.22 7.2 45 77 3.5 38.3
05:30 1025 30.27 854 25.22 7.2 45 77 3.5 38.3
05:35 1025 30.27 854 25.22 7.1 44.8 77 3.4 38.2
05:40 1025 30.27 854 25.22 7.1 44.8 77 3.4 38.2
05:45 1025 30.27 854 25.22 7 44.6 78 3.4 38.2
05:50 1025 30.27 854 25.22 6.9 44.4 78 3.4 38.1
05:55 1025 30.27 854 25.22 6.9 44.4 78 3.3 38
06:00 1025 30.27 854 25.22 6.8 44.3 79 3.5 38.3
06:05 1025 30.27 854 25.22 6.5 43.7 81 3.5 38.2
06:10 1025 30.27 855 25.25 6.4 43.4 81 3.3 38
06:15 1025 30.27 855 25.25 6.4 43.6 80 3.3 37.9
06:20 1025 30.27 855 25.25 6.5 43.7 81 3.4 38.2
06:25 1026 30.3 855 25.25 6.3 43.3 82 3.4 38.1
06:30 1026 30.3 855 25.25 6.2 43.1 82 3.3 38
06:35 1026 30.3 855 25.25 6.1 43 83 3.4 38.1
06:40 1026 30.3 855 25.25 6.1 43 83 3.4 38.1
06:45 1026 30.3 855 25.25 6.1 42.9 83 3.4 38.1
06:50 1026 30.3 855 25.25 6 42.9 83 3.4 38
06:55 1026 30.3 855 25.25 6.1 42.9 83 3.4 38.1
07:00 1026 30.3 855 25.25 6.1 43 83 3.4 38.2
07:05 1026 30.3 855 25.25 6.2 43.1 82 3.4 38
07:10 1026 30.3 855 25.25 6.3 43.3 82 3.4 38.1
07:15 1026 30.3 855 25.25 6.3 43.4 81 3.3 38
07:20 1026 30.3 855 25.25 6.5 43.6 80 3.3 37.9
07:25 1026 30.3 855 25.25 6.6 43.8 79 3.3 37.9
07:30 1026 30.3 855 25.25 6.6 43.9 79 3.3 37.9
07:35 1026 30.3 855 25.25 6.6 43.8 81 3.5 38.3
07:40 1026 30.3 855 25.25 6.5 43.8 81 3.5 38.3
07:45 1026 30.3 855 25.25 6.5 43.7 82 3.6 38.5
07:50 1026 30.3 856 25.28 6.5 43.7 81 3.5 38.3
07:55 1026 30.3 856 25.28 6.4 43.5 82 3.6 38.4
08:00 1026 30.3 856 25.28 6.4 43.6 81 3.5 38.2
08:05 1026 30.3 856 25.28 6.6 43.8 81 3.6 38.4
08:10 1026 30.3 855 25.25 6.4 43.6 82 3.5 38.4
08:15 1026 30.3 855 25.25 6.5 43.6 82 3.6 38.4
08:20 1026 30.3 855 25.25 6.5 43.7 81 3.4 38.2
08:25 1026 30.3 855 25.25 6.7 44 80 3.4 38.2
08:30 1026 30.3 855 25.25 6.9 44.4 79 3.4 38.2
08:35 1026 30.3 855 25.25 7.2 45 77 3.5 38.4
08:40 1026 30.3 856 25.28 7.1 44.8 79 3.6 38.5
08:45 1026 30.3 856 25.28 7.2 44.9 77 3.5 38.3
08:50 1026 30.3 856 25.28 7.1 44.8 78 3.6 38.5
08:55 1027 30.33 856 25.28 6.9 44.5 79 3.5 38.3
09:00 1026 30.3 856 25.28 7.2 45 76 3.3 38
09:05 1026 30.3 856 25.28 7.5 45.5 75 3.4 38.2
09:10 1026 30.3 856 25.28 7.4 45.3 75 3.4 38
09:15 1026 30.3 856 25.28 7.3 45.2 76 3.4 38.1
09:20 1026 30.3 856 25.28 7.3 45.1 76 3.3 38
09:25 1026 30.3 856 25.28 7.3 45.1 76 3.4 38.1
09:30 1026 30.3 856 25.28 7.8 46.1 72 3.1 37.7
09:35 1026 30.3 856 25.28 8.2 46.7 72 3.4 38.1
09:40 1026 30.3 856 25.28 8.1 46.5 74 3.6 38.5
09:45 1026 30.3 856 25.28 7.8 46 74 3.5 38.2
09:50 1026 30.3 856 25.28 8 46.4 72 3.2 37.8
09:55 1026 30.3 856 25.28 8.7 47.6 69 3.3 38
10:00 1026 30.3 856 25.28 8.9 47.9 68 3.4 38
10:05 1026 30.3 856 25.28 8.6 47.5 70 3.4 38.1
10:10 1026 30.3 856 25.28 8.6 47.5 69 3.3 37.9
10:15 1026 30.3 856 25.28 8.9 47.9 67 3 37.4
10:20 1026 30.3 856 25.28 9.1 48.5 62 2.2 35.9
10:25 1026 30.3 856 25.28 9.5 49.1 63 2.9 37.1
10:30 1026 30.3 856 25.28 10.1 50.1 58 2.2 35.9
10:35 1026 30.3 856 25.28 10.4 50.8 59 2.7 36.9
10:40 1026 30.3 856 25.28 10.3 50.5 59 2.7 36.8
10:45 1026 30.3 856 25.28 10.1 50.2 61 3 37.5
10:50 1026 30.3 856 25.28 10.1 50.1 61 2.9 37.2
10:55 1026 30.3 856 25.28 9.9 49.8 59 2.4 36.4
11:00 1026 30.3 856 25.28 10.3 50.5 59 2.6 36.6
11:05 1026 30.3 856 25.28 10.8 51.4 57 2.7 36.9
11:10 1026 30.3 856 25.28 11.3 52.3 56 2.9 37.3
11:15 1026 30.3 856 25.28 11.1 52.1 57 3 37.3
11:20 1026 30.3 856 25.28 10.6 51.2 60 3.3 37.9
11:25 1026 30.3 856 25.28 10.2 50.4 60 2.8 37.1
11:30 1026 30.3 856 25.28 10.1 50.2 61 2.9 37.2
11:35 1026 30.3 856 25.28 10.8 51.5 58 2.9 37.1
11:40 1026 30.3 855 25.25 11.1 52 58 3.3 37.9
11:45 1026 30.3 855 25.25 10.4 50.8 59 2.8 37.1
11:50 1026 30.3 855 25.25 10.6 51 58 2.8 37
11:55 1026 30.3 855 25.25 10.6 51.2 58 2.7 36.8
12:00 1026 30.3 855 25.25 10.5 50.9 58 2.6 36.7
12:05 1026 30.3 855 25.25 10.6 51.1 55 2 35.7
12:10 1026 30.3 855 25.25 11.2 52.1 53 2 35.6
12:15 1026 30.3 855 25.25 11.5 52.7 51 1.9 35.4
12:20 1026 30.3 855 25.25 11.6 52.8 53 2.4 36.3
12:25 1026 30.3 855 25.25 11.7 53 49 1.3 34.3
12:30 1026 30.3 855 25.25 12.1 53.7 50 2.2 35.9
12:35 1026 30.3 855 25.25 12.1 53.7 48 1.5 34.7
12:40 1026 30.3 855 25.25 12.9 55.3 47 1.9 35.3
12:45 1026 30.3 855 25.25 12.8 55.1 45 1.4 34.5
12:50 1026 30.3 855 25.25 12.9 55.3 46 1.8 35.2
12:55 1026 30.3 855 25.25 12.7 54.8 44 0.9 33.6
13:00 1026 30.3 855 25.25 12.8 55.1 46 1.6 35
13:05 1026 30.3 855 25.25 12.3 54.2 48 1.8 35.2
13:10 1026 30.3 855 25.25 12.9 55.2 46 1.7 35.1
13:15 1026 30.3 855 25.25 13.4 56 42 0.9 33.6
13:20 1026 30.3 855 25.25 13.5 56.3 42 1.1 33.9
13:25 1026 30.3 855 25.25 13.4 56.2 44 1.4 34.5
13:30 1025 30.27 855 25.25 13.7 56.6 42 1 33.9
13:35 1025 30.27 855 25.25 13.7 56.6 43 1.5 34.6
13:40 1025 30.27 855 25.25 14.3 57.7 39 0.8 33.4
13:45 1025 30.27 855 25.25 14.4 57.9 37 0.1 32.2
13:50 1025 30.27 855 25.25 14.3 57.8 36 -0.4 31.2
13:55 1025 30.27 855 25.25 14.7 58.4 37 0.3 32.5
14:00 1025 30.27 855 25.25 14.7 58.4 35 -0.6 31
14:05 1025 30.27 854 25.22 15.4 59.6 37 0.7 33.2
14:10 1025 30.27 854 25.22 14.4 57.9 38 0.2 32.4
14:15 1025 30.27 854 25.22 15.2 59.3 34 -0.3 31.4
14:20 1025 30.27 854 25.22 15.4 59.8 34 -0.4 31.2
14:25 1025 30.27 854 25.22 15.3 59.6 35 -0 32
14:30 1025 30.27 854 25.22 15.1 59.2 34 -0.4 31.3
14:35 1025 30.27 854 25.22 14.4 57.8 35 -0.7 30.7
14:40 1025 30.27 854 25.22 14.3 57.7 34 -1.1 30
14:45 1025 30.27 854 25.22 14.1 57.4 35 -1 30.3
14:50 1025 30.27 854 25.22 13.9 57 39 0.1 32.2
14:55 1025 30.27 854 25.22 13.3 56 39 -0.3 31.5
15:00 1025 30.27 854 25.22 13.5 56.2 39 -0.3 31.5
15:05 1025 30.27 854 25.22 13.6 56.4 35 -1.4 29.5
15:10 1025 30.27 854 25.22 14.3 57.7 35 -1 30.1
15:15 1025 30.27 854 25.22 14.7 58.4 33 -1.3 29.6
15:20 1025 30.27 854 25.22 14.9 58.8 35 -0.2 31.7
15:25 1025 30.27 854 25.22 14.9 58.8 36 0 32
15:30 1025 30.27 854 25.22 14.8 58.7 37 0.5 33
15:35 1025 30.27 854 25.22 15.2 59.3 37 0.7 33.3
15:40 1025 30.27 854 25.22 15.7 60.2 32 -0.9 30.4
15:45 1025 30.27 854 25.22 15.8 60.4 32 -0.6 30.9
15:50 1025 30.27 854 25.22 15.2 59.3 33 -0.8 30.5
15:55 1024 30.24 854 25.22 15.6 60.1 36 0.8 33.5
16:00 1024 30.24 854 25.22 15.8 60.5 35 0.6 33.1
16:05 1024 30.24 854 25.22 15.5 59.8 39 1.7 35.1
16:10 1024 30.24 854 25.22 14.3 57.8 41 1.5 34.7
16:15 1024 30.24 854 25.22 13.6 56.4 42 0.9 33.6
16:20 1024 30.24 854 25.22 13.5 56.3 41 0.7 33.2
16:25 1024 30.24 853 25.19 14.7 58.4 38 0.8 33.4
16:30 1024 30.24 853 25.19 15.1 59.2 36 0.4 32.8
16:35 1024 30.24 853 25.19 15.3 59.5 35 -0 31.9
16:40 1024 30.24 853 25.19 15.2 59.4 36 0.2 32.4
16:45 1024 30.24 853 25.19 14.9 58.7 37 0.4 32.7
16:50 1024 30.24 853 25.19 14.6 58.3 37 0.3 32.6
16:55 1024 30.24 853 25.19 14.6 58.2 38 0.4 32.7
17:00 1024 30.24 853 25.19 14.9 58.7 38 0.7 33.3
17:05 1024 30.24 853 25.19 14.7 58.5 38 0.6 33.1
17:10 1024 30.24 853 25.19 14.4 57.8 40 0.9 33.7
17:15 1024 30.24 853 25.19 14.6 58.3 38 0.7 33.3
17:20 1024 30.24 853 25.19 14.4 57.9 40 0.9 33.7
17:25 1024 30.24 853 25.19 14.1 57.5 39 0.6 33
17:30 1024 30.24 853 25.19 14 57.2 40 0.5 32.9
17:35 1024 30.24 853 25.19 14 57.2 39 0.4 32.8
17:40 1024 30.24 853 25.19 13.8 56.8 41 1 33.7
17:45 1024 30.24 853 25.19 13.6 56.5 42 1.1 34
17:50 1024 30.24 853 25.19 13.6 56.4 44 1.5 34.7
17:55 1024 30.24 853 25.19 13.3 55.9 43 0.9 33.6
18:00 1024 30.24 853 25.19 13.2 55.8 44 1.2 34.2
18:05 1024 30.24 853 25.19 13.3 55.9 43 1 33.8
18:10 1024 30.24 853 25.19 13.3 55.9 43 1.1 34
18:15 1024 30.24 853 25.19 12.9 55.2 44 1 33.8
18:20 1024 30.24 853 25.19 12.6 54.6 45 0.9 33.6
18:25 1024 30.24 853 25.19 12.5 54.4 45 0.8 33.5
18:30 1024 30.24 853 25.19 12.3 54.2 46 1.2 34.2
18:35 1024 30.24 853 25.19 12.3 54.2 46 1.2 34.2
18:40 1024 30.24 853 25.19 12.2 54 47 1.4 34.5
18:45 1024 30.24 853 25.19 12.1 53.8 47 1.3 34.3
18:50 1024 30.24 853 25.19 12.1 53.7 47 1.1 34
18:55 1024 30.24 854 25.22 11.8 53.3 48 1.3 34.4
19:00 1024 30.24 853 25.19 11.7 53 48 1 33.9
19:05 1024 30.24 853 25.19 11.5 52.8 48 0.9 33.7
19:10 1024 30.24 854 25.22 11.4 52.6 49 1.1 33.9
19:15 1024 30.24 854 25.22 11.3 52.4 49 1 33.8
19:20 1024 30.24 854 25.22 11.3 52.3 49 1.1 33.9
19:25 1024 30.24 854 25.22 11.2 52.1 50 1.1 34.1
19:30 1024 30.24 854 25.22 11.1 52 50 1.1 34
19:35 1024 30.24 854 25.22 11 51.8 49 0.9 33.6
19:40 1024 30.24 854 25.22 11 51.7 49 0.8 33.5
19:45 1024 30.24 854 25.22 10.9 51.5 50 1 33.8
19:50 1025 30.27 854 25.22 10.8 51.4 51 1 33.8
19:55 1025 30.27 854 25.22 10.7 51.2 51 1.1 34
20:00 1025 30.27 854 25.22 10.5 51 52 1.1 34
20:05 1025 30.27 854 25.22 10.4 50.7 53 1.2 34.1
20:10 1025 30.27 854 25.22 10.3 50.5 53 1.2 34.2
20:15 1025 30.27 854 25.22 10.1 50.3 54 1.3 34.3
20:20 1025 30.27 854 25.22 10 50.1 54 1.3 34.4
20:25 1025 30.27 854 25.22 9.9 49.9 55 1.4 34.5
20:30 1025 30.27 854 25.22 9.8 49.6 56 1.5 34.6
20:35 1025 30.27 854 25.22 9.6 49.3 56 1.3 34.4
20:40 1025 30.27 854 25.22 9.7 49.4 56 1.3 34.4
20:45 1025 30.27 854 25.22 9.6 49.2 56 1.3 34.3
20:50 1025 30.27 854 25.22 9.5 49.1 56 1.3 34.3
20:55 1025 30.27 854 25.22 9.5 49.1 56 1.2 34.2
21:00 1025 30.27 854 25.22 9.4 49 57 1.3 34.3
21:05 1025 30.27 854 25.22 9.4 48.9 57 1.2 34.2
21:10 1025 30.27 854 25.22 9.4 48.8 57 1.3 34.3
21:15 1025 30.27 854 25.22 9.3 48.8 57 1.3 34.3
21:20 1025 30.27 854 25.22 9.2 48.6 57 1.3 34.3
21:25 1025 30.27 854 25.22 9.2 48.6 57 1.2 34.1
21:30 1025 30.27 854 25.22 9.1 48.5 58 1.3 34.4
21:35 1025 30.27 854 25.22 9 48.1 58 1.2 34.1
21:40 1025 30.27 854 25.22 8.9 48.1 58 1.2 34.1
21:45 1025 30.27 854 25.22 8.8 47.9 59 1.2 34.2
21:50 1025 30.27 854 25.22 8.7 47.6 59 1.2 34.2
21:55 1025 30.27 854 25.22 8.7 47.6 59 1.1 33.9
22:00 1025 30.27 854 25.22 8.7 47.7 58 1 33.7
22:05 1025 30.27 854 25.22 8.8 47.8 58 1 33.7
22:10 1025 30.27 854 25.22 8.7 47.7 58 1 33.8
22:15 1025 30.27 854 25.22 8.6 47.5 59 1 33.9
22:20 1025 30.27 854 25.22 8.5 47.3 59 1 33.7
22:25 1025 30.27 854 25.22 8.4 47.2 59 1 33.8
22:30 1025 30.27 854 25.22 8.4 47.2 59 1 33.8
22:35 1025 30.27 854 25.22 8.4 47.2 60 1.1 33.9
22:40 1025 30.27 854 25.22 8.4 47 60 1.1 34
22:45 1025 30.27 854 25.22 8.3 46.9 61 1.2 34.2
22:50 1025 30.27 854 25.22 8.2 46.7 62 1.3 34.3
22:55 1025 30.27 854 25.22 8.1 46.5 63 1.4 34.6
23:00 1025 30.27 854 25.22 8 46.5 63 1.5 34.8
23:05 1025 30.27 854 25.22 8 46.3 64 1.6 34.9
23:10 1025 30.27 854 25.22 7.9 46.2 65 1.8 35.2
23:15 1025 30.27 854 25.22 7.8 46.1 66 1.9 35.3
23:20 1025 30.27 854 25.22 7.9 46.1 66 1.9 35.4
23:25 1025 30.27 854 25.22 7.8 46.1 66 2 35.6
23:30 1025 30.27 854 25.22 7.8 46 67 2 35.5
23:35 1025 30.27 854 25.22 7.8 46 67 2 35.7
23:40 1025 30.27 854 25.22 7.7 45.8 67 2 35.6
23:45 1025 30.27 854 25.22 7.6 45.6 68 2 35.6
23:50 1025 30.27 854 25.22 7.6 45.6 68 2 35.5
23:55 1025 30.27 854 25.22 7.5 45.6 68 2 35.5
24:00 1025 30.27 854 25.22 7.5 45.4 68 2 35.6